Time;durP1;ratioP1;P1;durP2;ratioP2;P2;SDS_P1;SDS_P2;PMS_P1;PMS_P2;Temp;Humidity;BMP_temperature;BMP_pressure;BME280_temperature;BME280_humidity;BME280_pressure;Samples;Min_cycle;Max_cycle;Signal;HPM_P1;HPM_P2
2022/09/22 04:02:09;;;;;;;7.70;4.50;;;8.00;99.90;;;;;;5213537;23;20503;-74
2022/09/22 04:04:36;;;;;;;4.70;4.20;;;8.00;99.90;;;;;;4966317;28;20457;-73
2022/09/22 04:07:03;;;;;;;8.83;4.13;;;7.90;99.90;;;;;;4967228;28;20470;-73
2022/09/22 04:09:30;;;;;;;7.03;3.90;;;8.00;99.90;;;;;;4967241;28;20449;-73
2022/09/22 04:11:56;;;;;;;5.80;4.27;;;7.90;99.90;;;;;;4967119;28;20492;-73
2022/09/22 04:14:23;;;;;;;5.73;4.57;;;7.90;99.90;;;;;;4966541;28;20453;-73
2022/09/22 04:16:50;;;;;;;5.30;4.70;;;7.90;99.90;;;;;;4966968;28;20518;-73
2022/09/22 04:19:18;;;;;;;5.90;4.03;;;7.90;99.90;;;;;;4966974;28;20586;-73
2022/09/22 04:21:45;;;;;;;6.23;4.63;;;7.80;99.90;;;;;;4967376;28;20487;-73
2022/09/22 04:24:12;;;;;;;5.90;4.17;;;7.80;99.90;;;;;;4966185;28;20944;-73
2022/09/22 04:26:39;;;;;;;4.60;4.20;;;7.80;99.90;;;;;;4966993;28;20961;-73
2022/09/22 04:29:05;;;;;;;5.33;3.90;;;7.80;99.90;;;;;;4967042;28;20461;-73
2022/09/22 04:31:32;;;;;;;4.83;4.33;;;7.70;99.90;;;;;;4966798;28;20488;-73
2022/09/22 04:33:59;;;;;;;5.10;4.27;;;7.70;99.90;;;;;;4966565;28;20464;-73
2022/09/22 04:36:27;;;;;;;5.37;4.63;;;7.70;99.90;;;;;;4966287;28;20459;-73
2022/09/22 04:38:54;;;;;;;8.90;5.10;;;7.70;99.90;;;;;;4966822;28;20500;-66
2022/09/22 04:41:21;;;;;;;4.77;4.27;;;7.70;99.90;;;;;;4966939;28;20487;-67
2022/09/22 04:43:47;;;;;;;6.93;4.10;;;7.70;99.90;;;;;;4966754;28;20468;-68
2022/09/22 04:46:14;;;;;;;5.67;4.83;;;7.60;99.90;;;;;;4967713;28;20941;-67
2022/09/22 04:48:41;;;;;;;5.40;4.50;;;7.60;99.90;;;;;;4971608;28;20467;-76
2022/09/22 04:51:07;;;;;;;7.47;4.50;;;7.60;99.90;;;;;;4973818;28;20483;-77
2022/09/22 04:53:36;;;;;;;8.83;4.27;;;7.60;99.90;;;;;;4977859;28;20471;-77
2022/09/22 04:56:03;;;;;;;6.70;4.60;;;7.60;99.90;;;;;;4986835;28;20456;-77
2022/09/22 04:58:30;;;;;;;6.97;4.60;;;7.60;99.90;;;;;;4987234;28;20516;-76
2022/09/22 05:01:02;;;;;;;6.30;4.87;;;7.50;99.90;;;;;;4982167;28;20511;-76
2022/09/22 05:03:28;;;;;;;5.77;4.40;;;7.50;99.90;;;;;;4975156;28;20449;-77
2022/09/22 05:05:55;;;;;;;7.13;4.97;;;7.50;99.90;;;;;;4972211;28;20960;-76
2022/09/22 05:08:22;;;;;;;7.33;5.60;;;7.50;99.90;;;;;;4972089;28;20829;-77
2022/09/22 05:10:50;;;;;;;6.07;4.80;;;7.60;99.90;;;;;;4972278;28;20465;-77
2022/09/22 05:13:18;;;;;;;6.13;4.80;;;7.50;99.90;;;;;;4972615;28;20464;-77
2022/09/22 05:15:44;;;;;;;7.10;4.97;;;7.50;99.90;;;;;;4971708;28;20464;-76
2022/09/22 05:18:11;;;;;;;6.03;5.00;;;7.50;99.90;;;;;;4971793;28;20522;-77
2022/09/22 05:20:38;;;;;;;10.00;5.37;;;7.50;99.90;;;;;;4971213;28;20491;-77
2022/09/22 05:23:05;;;;;;;6.07;4.97;;;7.50;99.90;;;;;;4970943;28;20460;-76
2022/09/22 05:25:33;;;;;;;8.20;5.37;;;7.50;99.90;;;;;;4970548;28;21194;-76
2022/09/22 05:28:01;;;;;;;6.33;4.93;;;7.50;99.90;;;;;;4970426;28;20515;-77
2022/09/22 05:30:28;;;;;;;6.90;4.73;;;7.50;99.90;;;;;;4971060;28;20469;-76
2022/09/22 05:32:55;;;;;;;6.23;4.50;;;7.50;99.90;;;;;;4969828;28;20472;-79
2022/09/22 05:35:23;;;;;;;9.57;4.57;;;7.50;99.90;;;;;;4969768;28;20475;-76
2022/09/22 05:37:51;;;;;;;8.97;6.30;;;7.50;99.90;;;;;;4970938;28;20472;-76
2022/09/22 05:40:19;;;;;;;8.00;5.77;;;7.50;99.90;;;;;;4971161;28;20460;-76
2022/09/22 05:42:47;;;;;;;5.63;4.60;;;7.50;99.90;;;;;;4970103;28;20456;-77
2022/09/22 05:45:17;;;;;;;8.90;4.80;;;7.50;99.90;;;;;;4969481;28;20475;-76
2022/09/22 05:47:44;;;;;;;11.80;8.20;;;7.50;99.90;;;;;;4969121;28;20465;-76
2022/09/22 05:50:13;;;;;;;10.17;6.50;;;7.50;99.90;;;;;;4970879;28;20468;-76
2022/09/22 05:52:40;;;;;;;8.37;5.80;;;7.40;99.90;;;;;;4971718;28;20468;-76
2022/09/22 05:55:08;;;;;;;7.70;5.83;;;7.40;99.90;;;;;;4971425;28;20479;-76
2022/09/22 05:57:35;;;;;;;6.33;5.70;;;7.40;99.90;;;;;;4972102;28;20552;-77
2022/09/22 06:00:02;;;;;;;7.50;5.80;;;7.40;99.90;;;;;;4971787;28;20496;-76
2022/09/22 06:02:31;;;;;;;6.80;6.10;;;7.40;99.90;;;;;;4971829;28;20583;-77
2022/09/22 06:04:58;;;;;;;7.33;5.50;;;7.40;99.90;;;;;;4971231;28;20819;-76
2022/09/22 06:07:24;;;;;;;7.67;5.43;;;7.40;99.90;;;;;;4971785;28;20461;-77
2022/09/22 06:09:51;;;;;;;7.90;6.13;;;7.30;99.90;;;;;;4971657;28;20905;-77
2022/09/22 06:12:19;;;;;;;8.00;5.83;;;7.30;99.90;;;;;;4971690;28;20507;-77
2022/09/22 06:14:46;;;;;;;8.47;5.10;;;7.30;99.90;;;;;;4970972;28;20464;-77
2022/09/22 06:17:13;;;;;;;7.90;5.57;;;7.30;99.90;;;;;;4972001;28;20456;-77
2022/09/22 06:19:42;;;;;;;6.10;5.20;;;7.30;99.90;;;;;;4971609;28;20572;-77
2022/09/22 06:22:10;;;;;;;12.43;6.37;;;7.30;99.90;;;;;;4971975;28;20485;-77
2022/09/22 06:24:37;;;;;;;8.37;6.23;;;7.30;99.90;;;;;;4970840;28;20464;-77
2022/09/22 06:27:04;;;;;;;11.33;6.50;;;7.30;99.90;;;;;;4971563;28;20471;-78
2022/09/22 06:29:31;;;;;;;6.23;5.53;;;7.30;99.90;;;;;;4972031;28;20456;-77
2022/09/22 06:31:58;;;;;;;7.13;5.30;;;7.30;99.90;;;;;;4971732;28;20475;-77
2022/09/22 06:34:26;;;;;;;5.60;5.10;;;7.40;99.90;;;;;;4971084;28;20465;-77
2022/09/22 06:36:55;;;;;;;7.23;5.30;;;7.40;99.90;;;;;;4971976;28;20464;-77
2022/09/22 06:39:22;;;;;;;9.90;5.83;;;7.40;99.90;;;;;;4971952;28;20874;-77
2022/09/22 06:41:49;;;;;;;6.30;5.60;;;7.40;99.90;;;;;;4972427;28;20480;-77
2022/09/22 06:44:15;;;;;;;5.40;4.90;;;7.40;99.90;;;;;;4971222;28;20456;-77
2022/09/22 06:46:42;;;;;;;6.70;4.93;;;7.40;99.90;;;;;;4972230;28;20464;-77
2022/09/22 06:49:09;;;;;;;9.27;6.30;;;7.40;99.90;;;;;;4972115;28;20449;-76
2022/09/22 06:51:37;;;;;;;8.43;5.47;;;7.40;99.90;;;;;;4972115;28;20491;-76
2022/09/22 06:54:06;;;;;;;8.73;5.47;;;7.40;99.90;;;;;;4970920;28;20461;-77
2022/09/22 06:56:38;;;;;;;8.33;5.23;;;7.50;99.90;;;;;;4971462;28;20555;-77
2022/09/22 06:59:09;;;;;;;8.23;5.77;;;7.50;99.90;;;;;;4971624;28;20591;-77
2022/09/22 07:01:36;;;;;;;6.63;4.63;;;7.50;99.90;;;;;;4971732;28;20594;-77
2022/09/22 07:04:03;;;;;;;6.90;6.20;;;7.50;99.90;;;;;;4971362;28;20483;-77
2022/09/22 07:06:30;;;;;;;5.33;4.83;;;7.60;99.90;;;;;;4971258;28;20875;-77
2022/09/22 07:08:56;;;;;;;6.63;5.83;;;7.60;99.90;;;;;;4970403;28;20452;-76
2022/09/22 07:11:25;;;;;;;6.23;5.20;;;7.60;99.90;;;;;;4970972;28;20484;-77
2022/09/22 07:13:53;;;;;;;9.53;5.33;;;7.60;99.90;;;;;;4970708;28;20469;-77
2022/09/22 07:16:21;;;;;;;9.80;6.10;;;7.60;99.90;;;;;;4969901;28;20966;-76
2022/09/22 07:18:50;;;;;;;10.10;5.70;;;7.70;99.90;;;;;;4970861;28;20527;-76
2022/09/22 07:21:21;;;;;;;8.33;5.80;;;7.70;99.90;;;;;;4970658;28;21170;-78
2022/09/22 07:23:49;;;;;;;7.93;5.50;;;7.80;99.90;;;;;;4970462;28;20468;-77
2022/09/22 07:26:18;;;;;;;8.30;6.50;;;7.80;99.90;;;;;;4972727;28;20464;-78
2022/09/22 07:28:50;;;;;;;7.70;5.93;;;7.90;99.90;;;;;;4976360;28;20486;-78
2022/09/22 07:31:17;;;;;;;5.87;5.13;;;7.90;99.90;;;;;;4975608;28;21500;-77
2022/09/22 07:33:45;;;;;;;9.77;5.83;;;8.00;99.90;;;;;;4975193;28;20461;-78
2022/09/22 07:36:14;;;;;;;12.00;5.40;;;8.10;99.90;;;;;;4975419;28;20502;-78
2022/09/22 07:38:43;;;;;;;6.70;5.27;;;8.10;99.90;;;;;;4976303;28;20496;-78
2022/09/22 07:41:12;;;;;;;7.40;4.43;;;8.20;99.90;;;;;;4975577;28;20523;-78
2022/09/22 07:43:40;;;;;;;5.13;4.57;;;8.30;99.90;;;;;;4975948;28;20472;-78
2022/09/22 07:46:08;;;;;;;4.53;3.90;;;8.30;99.90;;;;;;4975109;28;20456;-77
2022/09/22 07:48:37;;;;;;;5.77;3.93;;;8.40;99.90;;;;;;4976111;28;20470;-78
2022/09/22 07:51:05;;;;;;;5.40;4.00;;;8.50;99.90;;;;;;4975997;28;20530;-78
2022/09/22 07:53:32;;;;;;;5.13;4.63;;;8.50;99.90;;;;;;4975782;28;20452;-78
2022/09/22 07:56:03;;;;;;;6.37;5.03;;;8.60;99.90;;;;;;4975019;28;20980;-77
2022/09/22 07:58:30;;;;;;;8.15;5.15;;;8.70;99.90;;;;;;4974737;28;20555;-78
2022/09/22 08:00:58;;;;;;;8.70;5.20;;;8.80;99.90;;;;;;4975543;28;20504;-78
2022/09/22 08:03:26;;;;;;;7.40;5.13;;;9.00;99.90;;;;;;4975239;28;20456;-77
2022/09/22 08:06:01;;;;;;;6.47;5.07;;;9.10;99.90;;;;;;4973788;28;20917;-77
2022/09/22 08:08:33;;;;;;;7.97;5.83;;;9.20;99.90;;;;;;4974273;28;20460;-78
2022/09/22 08:11:04;;;;;;;7.37;4.67;;;9.40;99.90;;;;;;4974560;28;20860;-77
2022/09/22 08:13:33;;;;;;;9.53;4.40;;;9.50;99.90;;;;;;4973924;28;20445;-77
2022/09/22 08:16:02;;;;;;;4.23;3.63;;;9.60;99.90;;;;;;4973860;28;21004;-78
2022/09/22 08:18:30;;;;;;;5.17;3.93;;;9.70;99.90;;;;;;4974506;28;20464;-78
2022/09/22 08:20:59;;;;;;;8.83;4.03;;;9.90;99.90;;;;;;4969192;28;20507;-75
2022/09/22 08:23:26;;;;;;;7.20;3.80;;;10.00;99.90;;;;;;4966238;28;20555;-75
2022/09/22 08:25:53;;;;;;;5.80;3.73;;;10.20;99.90;;;;;;4965722;28;21049;-75
2022/09/22 08:28:20;;;;;;;4.83;3.80;;;10.30;99.90;;;;;;4965977;28;20488;-75
2022/09/22 08:30:47;;;;;;;3.77;3.40;;;10.50;99.90;;;;;;4968881;28;20481;-77
2022/09/22 08:33:14;;;;;;;4.37;3.57;;;10.70;99.90;;;;;;4968756;28;21016;-76
2022/09/22 08:35:52;;;;;;;4.37;3.60;;;10.90;99.90;;;;;;4967785;28;20466;-77
2022/09/22 08:38:22;;;;;;;3.00;2.70;;;11.10;99.90;;;;;;4967923;28;20863;-77
2022/09/22 08:41:00;;;;;;;6.37;3.20;;;11.20;99.90;;;;;;4967871;28;20881;-77
2022/09/22 08:43:30;;;;;;;3.40;2.50;;;11.40;99.90;;;;;;4968500;28;20452;-77
2022/09/22 08:45:58;;;;;;;7.80;3.20;;;11.60;99.90;;;;;;4968884;28;20507;-76
2022/09/22 08:54:04;;;;;;;2.90;2.60;;;12.50;99.90;;;;;;4967759;28;20436;-77
2022/09/22 08:56:36;;;;;;;2.60;2.30;;;12.60;99.90;;;;;;4968986;28;20885;-77
2022/09/22 08:59:09;;;;;;;5.90;2.57;;;12.80;99.90;;;;;;4968318;28;20877;-77
2022/09/22 09:01:56;;;;;;;6.20;2.70;;;13.10;99.90;;;;;;4968948;28;20495;-77
2022/09/22 09:04:43;;;;;;;2.97;2.30;;;13.30;99.90;;;;;;4968232;28;20775;-77
2022/09/22 09:07:18;;;;;;;2.70;2.47;;;13.50;99.90;;;;;;4968839;28;20449;-77
2022/09/22 09:09:54;;;;;;;3.80;2.50;;;13.70;99.90;;;;;;4969411;28;20479;-77
2022/09/22 09:12:38;;;;;;;2.90;2.30;;;14.20;99.90;;;;;;4969517;28;20523;-77
2022/09/22 09:15:24;;;;;;;3.47;2.50;;;14.30;99.90;;;;;;4967847;28;20471;-77
2022/09/22 09:17:54;;;;;;;4.20;2.20;;;14.50;99.90;;;;;;4969320;28;20906;-77
2022/09/22 09:20:34;;;;;;;4.47;2.30;;;14.80;99.90;;;;;;4969790;28;20498;-78
2022/09/22 09:23:08;;;;;;;4.27;2.30;;;15.20;99.90;;;;;;4969923;28;20448;-77
2022/09/22 09:25:38;;;;;;;2.43;2.20;;;15.10;99.90;;;;;;4969595;28;20468;-77
2022/09/22 09:28:11;;;;;;;4.10;2.13;;;15.20;99.90;;;;;;4970487;28;20552;-77
2022/09/22 09:30:43;;;;;;;3.33;2.27;;;15.40;99.90;;;;;;4968085;28;20509;-77
2022/09/22 09:33:18;;;;;;;2.53;1.90;;;15.60;99.90;;;;;;4969389;28;20449;-72
2022/09/22 09:35:47;;;;;;;2.33;2.13;;;15.90;99.90;;;;;;4968917;28;20483;-74
2022/09/22 09:38:18;;;;;;;3.00;1.70;;;16.20;99.90;;;;;;4969982;28;20464;-74
2022/09/22 09:40:51;;;;;;;3.73;1.60;;;16.40;99.90;;;;;;4969686;28;20515;-74
2022/09/22 09:43:19;;;;;;;2.40;1.53;;;16.70;99.90;;;;;;4969552;28;20563;-73
2022/09/22 09:45:59;;;;;;;2.37;1.30;;;16.90;99.90;;;;;;4969047;28;20832;-74
2022/09/22 09:48:33;;;;;;;2.17;1.20;;;17.30;99.90;;;;;;4969580;28;20456;-73
2022/09/22 09:51:04;;;;;;;1.70;1.30;;;17.70;99.90;;;;;;4969762;28;20487;-74
2022/09/22 09:53:37;;;;;;;2.00;1.20;;;17.80;99.90;;;;;;4969203;28;20461;-74
2022/09/22 09:56:22;;;;;;;1.60;1.30;;;18.50;99.90;;;;;;4968976;28;21454;-73
2022/09/22 10:01:42;;;;;;;1.50;1.03;;;18.80;99.90;;;;;;4969149;28;20490;-77
2022/09/22 10:04:18;;;;;;;1.80;1.10;;;18.80;99.90;;;;;;4974345;28;20453;-77
2022/09/22 10:06:45;;;;;;;1.30;1.13;;;19.70;99.90;;;;;;4975073;28;20457;-78
2022/09/22 10:09:23;;;;;;;1.50;1.20;;;19.60;99.90;;;;;;4973995;28;20460;-77
2022/09/22 10:11:58;;;;;;;2.17;1.30;;;20.10;99.90;;;;;;4974716;28;20486;-78
2022/09/22 10:14:29;;;;;;;3.07;1.27;;;20.30;99.90;;;;;;4972466;28;20451;-78
2022/09/22 10:16:55;;;;;;;1.90;1.60;;;20.40;99.90;;;;;;4973448;28;20463;-78
2022/09/22 10:19:27;;;;;;;1.87;1.30;;;20.30;99.90;;;;;;4972913;28;20847;-78
2022/09/22 10:22:16;;;;;;;1.30;1.10;;;20.20;99.90;;;;;;4974566;28;21165;-78
2022/09/22 10:24:53;;;;;;;2.87;1.37;;;20.10;99.90;;;;;;4973199;28;20445;-78
2022/09/22 10:27:22;;;;;;;1.80;1.20;;;20.40;99.90;;;;;;4973034;28;20921;-78
2022/09/22 10:30:22;;;;;;;3.63;1.23;;;20.40;99.90;;;;;;4972892;28;20463;-77
2022/09/22 10:33:16;;;;;;;3.10;1.10;;;20.40;99.90;;;;;;4973514;28;20961;-77
2022/09/22 10:35:45;;;;;;;1.47;1.10;;;20.50;99.90;;;;;;4973324;28;20452;-76
2022/09/22 10:38:18;;;;;;;2.93;1.20;;;20.60;99.90;;;;;;4975059;28;20465;-77
2022/09/22 10:40:53;;;;;;;1.50;1.20;;;20.70;99.90;;;;;;4974780;28;20510;-77
2022/09/22 10:43:36;;;;;;;2.40;1.23;;;20.90;99.90;;;;;;4972781;28;20456;-78
2022/09/22 10:46:17;;;;;;;1.73;1.20;;;21.20;99.90;;;;;;4972985;28;20437;-76
2022/09/22 10:48:48;;;;;;;1.50;1.40;;;21.10;99.90;;;;;;4972272;28;20451;-77
2022/09/22 10:51:20;;;;;;;4.43;1.50;;;21.30;99.90;;;;;;4972317;28;20788;-78
2022/09/22 10:54:07;;;;;;;4.53;1.07;;;21.50;99.90;;;;;;4973624;28;20509;-78
2022/09/22 10:56:39;;;;;;;1.20;1.10;;;21.90;99.90;;;;;;4975044;28;20476;-77
2022/09/22 10:59:22;;;;;;;1.93;1.30;;;22.60;99.90;;;;;;4972573;28;20523;-78
2022/09/22 11:02:20;;;;;;;1.63;1.10;;;22.60;99.90;;;;;;4974270;28;20508;-77
2022/09/22 11:04:56;;;;;;;2.00;1.20;;;22.80;99.90;;;;;;4968847;28;20812;-77
2022/09/22 11:13:39;;;;;;;1.17;1.03;;;22.70;99.90;;;;;;4952004;29;20691;-75
2022/09/22 11:16:22;;;;;;;2.33;1.30;;;22.80;99.90;;;;;;4954586;28;20847;-80
2022/09/22 11:19:07;;;;;;;2.43;1.43;;;22.80;99.90;;;;;;4958160;28;20475;-80
2022/09/22 11:21:47;;;;;;;2.60;1.20;;;22.80;99.90;;;;;;4959145;28;20504;-80
2022/09/22 11:24:26;;;;;;;1.27;1.10;;;22.80;99.90;;;;;;4957438;28;20446;-80
2022/09/22 11:26:55;;;;;;;4.47;1.63;;;22.90;99.90;;;;;;4956779;28;20446;-80
2022/09/22 11:29:51;;;;;;;2.03;1.10;;;23.00;99.90;;;;;;4956106;28;20467;-81
2022/09/22 11:32:40;;;;;;;2.40;1.17;;;23.20;99.90;;;;;;4954086;28;20869;-81
2022/09/22 11:35:31;;;;;;;4.47;1.57;;;23.50;99.90;;;;;;4953079;28;20466;-80
2022/09/22 11:38:13;;;;;;;1.50;1.17;;;23.60;99.90;;;;;;4957155;28;20456;-81
2022/09/22 11:40:56;;;;;;;1.30;1.00;;;23.40;99.90;;;;;;4955863;28;20493;-79
2022/09/22 11:43:42;;;;;;;1.37;0.97;;;23.50;99.90;;;;;;4952296;28;20453;-80
2022/09/22 11:46:20;;;;;;;1.70;1.20;;;23.40;99.90;;;;;;4954650;28;20457;-80
2022/09/22 11:49:00;;;;;;;1.50;1.20;;;23.40;99.90;;;;;;4956078;28;20463;-80
2022/09/22 11:51:46;;;;;;;1.97;1.27;;;23.50;99.90;;;;;;4955467;28;20233;-81
2022/09/22 11:54:34;;;;;;;1.37;1.13;;;23.70;99.90;;;;;;4953347;28;20465;-81
2022/09/22 11:57:04;;;;;;;1.40;1.20;;;23.70;99.90;;;;;;4951541;28;20450;-81
2022/09/22 11:59:37;;;;;;;1.23;1.13;;;23.60;99.90;;;;;;4951403;28;20470;-79
2022/09/22 12:02:15;;;;;;;2.10;1.43;;;23.60;99.90;;;;;;4952254;28;20481;-79
2022/09/22 12:04:46;;;;;;;3.63;1.70;;;23.80;99.70;;;;;;4951405;28;20485;-78
2022/09/22 12:07:17;;;;;;;2.10;1.30;;;23.70;99.90;;;;;;4956908;28;20448;-79
2022/09/22 12:09:48;;;;;;;2.60;1.40;;;23.80;99.90;;;;;;4956199;28;20442;-79
2022/09/22 12:12:18;;;;;;;1.23;0.90;;;24.00;98.90;;;;;;4954336;28;20500;-79
2022/09/22 12:14:50;;;;;;;1.63;1.27;;;24.30;99.90;;;;;;4953279;28;20441;-78
2022/09/22 12:17:22;;;;;;;1.03;0.93;;;24.60;99.90;;;;;;4954730;28;20747;-78
2022/09/22 12:19:56;;;;;;;1.03;0.93;;;25.00;98.30;;;;;;4953092;28;20914;-79
2022/09/22 12:22:30;;;;;;;1.60;1.30;;;25.20;98.50;;;;;;4953322;28;20461;-78
2022/09/22 12:24:57;;;;;;;5.33;1.17;;;25.40;95.80;;;;;;4952728;28;20460;-79
2022/09/22 12:27:25;;;;;;;1.23;1.13;;;25.80;93.60;;;;;;4955627;28;20469;-79
2022/09/22 12:30:00;;;;;;;1.70;1.20;;;25.90;93.30;;;;;;4955877;28;20475;-72
2022/09/22 12:32:35;;;;;;;2.70;1.20;;;25.80;93.20;;;;;;4946288;28;20480;-72
2022/09/22 12:35:03;;;;;;;2.17;1.47;;;25.60;94.10;;;;;;4945805;28;20804;-71
2022/09/22 12:37:33;;;;;;;2.10;1.10;;;25.50;94.40;;;;;;4946609;28;20528;-71
2022/09/22 12:40:21;;;;;;;1.73;1.33;;;25.50;94.30;;;;;;4946793;28;20483;-73
2022/09/22 12:42:51;;;;;;;1.40;1.30;;;25.40;95.50;;;;;;4947342;28;20592;-71
2022/09/22 12:45:27;;;;;;;1.90;1.13;;;25.40;96.00;;;;;;4946305;28;20449;-70
2022/09/22 12:47:57;;;;;;;1.63;1.10;;;25.30;95.80;;;;;;4947545;28;20453;-70
2022/09/22 12:50:34;;;;;;;2.70;1.00;;;25.30;94.90;;;;;;4947483;28;20442;-70
2022/09/22 12:53:05;;;;;;;1.93;1.20;;;25.40;93.40;;;;;;4946894;28;20445;-71
2022/09/22 12:55:37;;;;;;;3.13;1.10;;;25.50;92.20;;;;;;4945983;28;20485;-70
2022/09/22 12:58:24;;;;;;;1.27;1.10;;;25.60;91.90;;;;;;4944699;28;20521;-72
2022/09/22 13:00:52;;;;;;;1.47;1.10;;;25.50;92.20;;;;;;4944970;28;21018;-72
2022/09/22 13:03:48;;;;;;;1.40;0.97;;;25.40;95.40;;;;;;4945920;28;20457;-71
2022/09/22 13:06:54;;;;;;;6.43;1.20;;;25.40;94.80;;;;;;4946051;28;20474;-72
2022/09/22 13:09:24;;;;;;;1.60;1.33;;;25.50;95.20;;;;;;4950437;28;20546;-71
2022/09/22 13:12:26;;;;;;;2.63;1.37;;;25.30;94.90;;;;;;4950458;28;20875;-73
2022/09/22 13:15:16;;;;;;;3.10;1.20;;;25.20;94.40;;;;;;4950107;28;20993;-72
2022/09/22 13:17:44;;;;;;;2.70;1.37;;;25.10;94.40;;;;;;4950567;28;20462;-71
2022/09/22 13:20:16;;;;;;;1.63;1.13;;;25.10;94.00;;;;;;4950533;28;20461;-71
2022/09/22 13:22:43;;;;;;;2.40;1.27;;;25.00;94.30;;;;;;4950173;28;20445;-73
2022/09/22 13:25:22;;;;;;;5.30;3.20;;;25.00;94.40;;;;;;4949853;28;20461;-72
2022/09/22 13:28:01;;;;;;;1.50;1.00;;;25.00;94.40;;;;;;4972141;28;20451;-70
2022/09/22 13:30:28;;;;;;;1.27;1.10;;;25.00;95.00;;;;;;4989145;28;20477;-73
2022/09/22 13:32:54;;;;;;;3.97;1.67;;;25.00;93.40;;;;;;4989300;28;20828;-73
2022/09/22 13:35:26;;;;;;;1.73;1.10;;;25.00;93.80;;;;;;4987760;28;21299;-75
2022/09/22 13:37:55;;;;;;;1.93;1.20;;;25.00;93.90;;;;;;4987144;28;20448;-75
2022/09/22 13:40:26;;;;;;;1.70;1.10;;;25.00;93.50;;;;;;4988572;28;20460;-73
2022/09/22 13:42:56;;;;;;;1.53;1.13;;;25.10;94.60;;;;;;4987945;28;20463;-73
2022/09/22 13:45:26;;;;;;;2.20;1.13;;;25.10;93.20;;;;;;4988015;28;20478;-72
2022/09/22 13:47:55;;;;;;;1.40;1.10;;;25.10;92.30;;;;;;4988687;28;20459;-72
2022/09/22 13:50:22;;;;;;;2.90;1.20;;;24.90;93.30;;;;;;4988806;28;20460;-72
2022/09/22 13:52:52;;;;;;;1.50;1.10;;;24.80;92.20;;;;;;4988805;28;20455;-72
2022/09/22 13:55:24;;;;;;;2.00;1.30;;;24.70;92.40;;;;;;4987884;28;20460;-72
2022/09/22 13:57:53;;;;;;;1.50;1.40;;;24.70;94.20;;;;;;4988648;28;20456;-72
2022/09/22 14:00:25;;;;;;;1.53;1.23;;;24.70;93.10;;;;;;4988128;28;20451;-73
2022/09/22 14:02:52;;;;;;;1.43;1.17;;;24.70;93.20;;;;;;4987801;28;20982;-71
2022/09/22 14:05:23;;;;;;;1.30;1.00;;;24.70;97.00;;;;;;4987051;28;20466;-72
2022/09/22 14:07:52;;;;;;;1.83;1.20;;;24.80;94.60;;;;;;4987577;28;20440;-72
2022/09/22 14:10:20;;;;;;;8.20;2.17;;;24.70;93.50;;;;;;4988348;28;20560;-75
2022/09/22 14:12:47;;;;;;;1.63;1.30;;;24.70;94.30;;;;;;4986941;28;20521;-72
2022/09/22 14:15:38;;;;;;;2.50;1.27;;;24.70;93.90;;;;;;4987164;28;20459;-70
2022/09/22 14:18:14;;;;;;;1.50;1.20;;;24.60;93.10;;;;;;4989211;28;20503;-70
2022/09/22 14:20:43;;;;;;;1.97;1.47;;;24.50;92.70;;;;;;4988217;28;20558;-69
2022/09/22 14:23:17;;;;;;;2.80;1.87;;;24.30;93.50;;;;;;4988438;28;20463;-76
2022/09/22 14:25:44;;;;;;;1.57;1.30;;;24.30;93.60;;;;;;4990197;28;20827;-78
2022/09/22 14:28:19;;;;;;;2.77;1.10;;;24.20;96.00;;;;;;4990390;28;20474;-79
2022/09/22 14:30:46;;;;;;;1.83;1.10;;;24.20;95.90;;;;;;4992391;28;20479;-79
2022/09/22 14:33:18;;;;;;;1.50;1.00;;;24.20;95.60;;;;;;4993961;28;20634;-79
2022/09/22 14:35:45;;;;;;;2.70;1.33;;;24.10;95.30;;;;;;4992820;28;20444;-79
2022/09/22 14:38:21;;;;;;;3.00;1.40;;;24.00;94.70;;;;;;4994257;28;20459;-79
2022/09/22 14:40:52;;;;;;;4.40;1.60;;;23.90;96.40;;;;;;4994576;28;20550;-79
2022/09/22 14:43:26;;;;;;;3.50;1.90;;;23.90;95.80;;;;;;4994738;28;20481;-80
2022/09/22 14:45:58;;;;;;;2.70;1.33;;;23.80;95.70;;;;;;4994275;28;20825;-79
2022/09/22 14:48:30;;;;;;;2.30;1.23;;;23.60;93.30;;;;;;4993762;28;20466;-80
2022/09/22 14:51:01;;;;;;;5.20;1.50;;;23.60;94.60;;;;;;4992877;28;20483;-80
2022/09/22 14:53:32;;;;;;;5.23;1.30;;;23.50;94.50;;;;;;4993229;28;20458;-80
2022/09/22 14:56:02;;;;;;;2.10;1.73;;;23.50;93.70;;;;;;4993753;28;20440;-80
2022/09/22 14:58:33;;;;;;;1.67;1.50;;;23.50;94.90;;;;;;4994494;28;20456;-80
2022/09/22 15:03:55;;;;;;;1.53;1.03;;;23.30;94.20;;;;;;4992358;28;20923;-79
2022/09/22 15:06:22;;;;;;;1.70;1.33;;;23.30;94.20;;;;;;4990755;28;20475;-78
2022/09/22 15:08:52;;;;;;;2.67;1.40;;;23.30;94.40;;;;;;4991676;28;20466;-79
2022/09/22 15:11:19;;;;;;;2.73;1.30;;;23.40;94.50;;;;;;4991315;28;20490;-79
2022/09/22 15:13:49;;;;;;;1.40;1.20;;;23.60;94.10;;;;;;4993346;28;20459;-80
2022/09/22 15:16:36;;;;;;;1.50;1.40;;;23.70;94.60;;;;;;4989727;28;20452;-79
2022/09/22 15:19:03;;;;;;;2.00;1.70;;;23.90;94.20;;;;;;4993187;28;20471;-80
2022/09/22 15:21:40;;;;;;;1.73;1.40;;;24.00;92.90;;;;;;4992260;28;20876;-81
2022/09/22 15:24:10;;;;;;;1.70;1.50;;;24.20;93.30;;;;;;4991410;28;20463;-79
2022/09/22 15:26:37;;;;;;;1.60;1.30;;;24.40;94.60;;;;;;4992199;28;20467;-80
2022/09/22 15:29:04;;;;;;;5.60;3.93;;;24.60;94.30;;;;;;4989707;28;20464;-79
2022/09/22 15:31:31;;;;;;;3.40;1.70;;;24.80;93.80;;;;;;4992687;28;20480;-80
2022/09/22 15:34:01;;;;;;;1.50;1.30;;;24.80;93.50;;;;;;4992552;28;20533;-81
2022/09/22 15:36:31;;;;;;;1.57;1.30;;;24.80;92.60;;;;;;4993838;28;20455;-79
2022/09/22 15:39:00;;;;;;;1.83;1.37;;;24.90;93.40;;;;;;4993759;28;20495;-79
2022/09/22 15:41:28;;;;;;;1.17;1.07;;;25.00;93.20;;;;;;4993407;28;20872;-79
2022/09/22 15:43:55;;;;;;;2.90;1.20;;;25.10;93.20;;;;;;4992846;28;20463;-79
2022/09/22 15:46:32;;;;;;;2.23;1.67;;;25.10;92.30;;;;;;4993087;28;21077;-79
2022/09/22 15:49:01;;;;;;;2.03;1.23;;;25.00;92.70;;;;;;4981509;28;21178;-78
2022/09/22 15:51:29;;;;;;;1.60;1.30;;;24.90;92.30;;;;;;4973224;28;20750;-79
2022/09/22 15:53:56;;;;;;;1.70;1.30;;;24.80;91.80;;;;;;4972958;28;20507;-78
2022/09/22 15:56:24;;;;;;;2.20;1.20;;;24.70;92.20;;;;;;4973751;28;20461;-79
2022/09/22 15:58:54;;;;;;;3.33;1.80;;;24.80;93.20;;;;;;4967683;28;20928;-70
2022/09/22 16:01:21;;;;;;;1.23;1.10;;;24.80;92.80;;;;;;4966804;28;20504;-70
2022/09/22 16:03:49;;;;;;;2.93;1.40;;;24.70;92.80;;;;;;4967802;28;20468;-70
2022/09/22 16:06:18;;;;;;;2.40;1.30;;;24.60;92.60;;;;;;4973472;28;20468;-79
2022/09/22 16:08:50;;;;;;;2.00;1.37;;;24.40;92.20;;;;;;4975306;28;20465;-74
2022/09/22 16:11:22;;;;;;;1.70;1.40;;;24.20;92.10;;;;;;4973542;28;20477;-78
2022/09/22 16:13:48;;;;;;;2.90;2.40;;;24.10;92.30;;;;;;4973094;28;20463;-78
2022/09/22 16:16:18;;;;;;;3.27;1.77;;;23.90;92.30;;;;;;4972504;28;20449;-77
2022/09/22 16:18:44;;;;;;;2.97;1.93;;;23.60;92.40;;;;;;4973931;28;20577;-79
2022/09/22 16:21:19;;;;;;;2.30;1.30;;;23.50;93.80;;;;;;4974481;28;20487;-80
2022/09/22 16:23:46;;;;;;;1.80;1.53;;;23.30;93.90;;;;;;4977218;28;20463;-80
2022/09/22 16:26:12;;;;;;;1.90;1.60;;;23.20;93.90;;;;;;4975672;28;20524;-80
2022/09/22 16:28:39;;;;;;;4.77;1.70;;;23.00;94.00;;;;;;4976305;28;20464;-80
2022/09/22 16:31:07;;;;;;;2.30;1.90;;;22.80;94.00;;;;;;4977774;28;20848;-80
2022/09/22 16:33:35;;;;;;;2.30;1.53;;;22.60;94.20;;;;;;4976796;28;20460;-80
2022/09/22 16:36:03;;;;;;;2.40;1.70;;;22.40;94.00;;;;;;4975894;28;20471;-80
2022/09/22 16:38:30;;;;;;;1.80;1.47;;;22.20;94.30;;;;;;4978684;28;20444;-80
2022/09/22 16:41:03;;;;;;;3.70;1.70;;;22.00;94.50;;;;;;4977844;28;20568;-80
2022/09/22 16:43:30;;;;;;;6.97;1.67;;;21.90;95.00;;;;;;4977345;28;20484;-80
2022/09/22 16:48:43;;;;;;;1.70;1.30;;;21.30;96.20;;;;;;4977345;28;20439;-79
2022/09/22 16:51:18;;;;;;;2.77;1.90;;;21.10;96.00;;;;;;4976689;28;20852;-81
2022/09/22 16:53:51;;;;;;;5.00;2.00;;;20.80;96.50;;;;;;4979782;28;20444;-80
2022/09/22 16:56:18;;;;;;;2.30;1.60;;;20.60;96.70;;;;;;4975999;28;20454;-79
2022/09/22 16:58:45;;;;;;;6.23;2.10;;;20.40;95.90;;;;;;4973217;28;20467;-78
2022/09/22 17:01:14;;;;;;;3.20;2.03;;;20.20;97.80;;;;;;4971195;28;20492;-79
2022/09/22 17:03:41;;;;;;;10.30;3.30;;;20.10;97.60;;;;;;4974047;28;20524;-82
2022/09/22 17:06:10;;;;;;;8.63;2.40;;;19.90;98.20;;;;;;4971534;28;20460;-79
2022/09/22 17:08:40;;;;;;;4.73;2.23;;;19.80;98.10;;;;;;4972865;28;20483;-79
2022/09/22 17:11:07;;;;;;;5.97;2.50;;;19.70;98.60;;;;;;4972080;28;20598;-78
2022/09/22 17:13:34;;;;;;;4.40;2.53;;;19.50;99.10;;;;;;4972397;28;20457;-80
2022/09/22 17:16:08;;;;;;;7.80;3.17;;;19.40;99.20;;;;;;4973724;28;20452;-79
2022/09/22 17:18:40;;;;;;;15.43;2.80;;;19.30;98.70;;;;;;4972975;28;20471;-80
2022/09/22 17:21:09;;;;;;;5.23;1.77;;;19.20;99.20;;;;;;4973342;28;20503;-79
2022/09/22 17:23:36;;;;;;;3.20;1.83;;;19.10;99.90;;;;;;4973130;28;20500;-79
2022/09/22 17:26:04;;;;;;;3.50;1.97;;;19.00;99.90;;;;;;4973235;28;20501;-79
2022/09/22 17:28:31;;;;;;;3.00;2.17;;;18.80;99.90;;;;;;4974156;28;20468;-79
2022/09/22 17:30:59;;;;;;;3.30;2.27;;;18.70;99.90;;;;;;4971879;28;20518;-79
2022/09/22 17:33:27;;;;;;;2.87;2.10;;;18.60;99.90;;;;;;4972110;28;20456;-79